createdAt,value
2023-06-30T00:00:39.044Z,71.60
2023-06-30T00:02:40.737Z,71.91
2023-06-30T00:04:42.187Z,71.55
2023-06-30T00:06:43.520Z,72.12
2023-06-30T00:08:44.849Z,72.07
2023-06-30T00:10:46.196Z,71.96
2023-06-30T00:12:47.533Z,72.10
2023-06-30T00:14:48.863Z,72.11
2023-06-30T00:16:50.953Z,72.41
2023-06-30T00:18:56.748Z,72.33
2023-06-30T00:20:58.602Z,72.00
2023-06-30T00:22:59.945Z,72.18
2023-06-30T00:25:01.268Z,71.80
2023-06-30T00:27:02.591Z,72.19
2023-06-30T00:29:03.921Z,72.03
2023-06-30T00:31:05.533Z,72.02
2023-06-30T00:33:06.942Z,71.99
2023-06-30T00:35:08.348Z,71.78
2023-06-30T00:37:09.711Z,71.91
2023-06-30T00:39:11.111Z,71.58
2023-06-30T00:41:12.441Z,72.17
2023-06-30T00:43:13.792Z,72.00
2023-06-30T00:45:15.115Z,72.10
2023-06-30T00:47:16.492Z,72.31
2023-06-30T00:49:17.872Z,72.05
2023-06-30T00:51:19.207Z,71.97
2023-06-30T00:53:20.575Z,71.85
2023-06-30T00:55:21.967Z,72.01
2023-06-30T00:57:23.335Z,72.05
2023-06-30T00:59:24.660Z,72.21
2023-06-30T01:01:26.068Z,72.26
2023-06-30T01:03:27.607Z,72.21
2023-06-30T01:05:29.186Z,72.14
2023-06-30T01:07:30.680Z,72.17
2023-06-30T01:09:32.043Z,72.39
2023-06-30T01:11:33.364Z,72.17
2023-06-30T01:13:34.718Z,72.07
2023-06-30T01:15:36.055Z,72.20
2023-06-30T01:17:46.695Z,72.30
2023-06-30T01:19:48.948Z,72.30
2023-06-30T01:21:51.318Z,72.29
2023-06-30T01:23:52.645Z,72.55
2023-06-30T01:25:54.155Z,72.48
2023-06-30T01:27:55.523Z,72.10
2023-06-30T01:29:56.834Z,72.36
2023-06-30T01:31:58.164Z,72.16
2023-06-30T01:33:59.496Z,72.23
2023-06-30T01:36:00.865Z,72.54
2023-06-30T01:38:03.476Z,72.51
2023-06-30T01:40:05.475Z,72.35
2023-06-30T01:42:06.860Z,72.30
2023-06-30T01:44:08.243Z,72.41
2023-06-30T01:46:09.656Z,72.48
2023-06-30T01:48:11.032Z,72.27
2023-06-30T01:50:12.400Z,72.61
2023-06-30T01:52:13.780Z,72.20
2023-06-30T01:54:15.185Z,72.51
2023-06-30T01:56:16.600Z,72.30
2023-06-30T01:58:17.924Z,72.32
2023-06-30T02:00:19.329Z,72.30
2023-06-30T02:02:20.692Z,72.62
2023-06-30T02:04:22.386Z,72.37
2023-06-30T02:06:23.722Z,72.53
2023-06-30T02:08:25.059Z,72.12
2023-06-30T02:10:26.547Z,72.59
2023-06-30T02:12:27.889Z,72.59
2023-06-30T02:14:29.311Z,72.63
2023-06-30T02:16:30.703Z,72.67
2023-06-30T02:18:32.256Z,72.68
2023-06-30T02:20:33.864Z,72.15
2023-06-30T02:22:35.279Z,72.54
2023-06-30T02:24:36.651Z,72.54
2023-06-30T02:26:37.971Z,72.51
2023-06-30T02:28:39.297Z,72.49
2023-06-30T02:30:40.639Z,72.61
2023-06-30T02:32:42.431Z,72.58
2023-06-30T02:34:43.781Z,72.67
2023-06-30T02:36:45.137Z,72.61
2023-06-30T02:38:46.460Z,72.47
2023-06-30T02:40:47.802Z,72.68
2023-06-30T02:42:49.421Z,72.53
2023-06-30T02:44:50.803Z,72.15
2023-06-30T02:46:52.123Z,72.39
2023-06-30T02:48:53.473Z,72.59
2023-06-30T02:50:54.803Z,72.63
2023-06-30T02:52:56.123Z,72.29
2023-06-30T02:54:57.542Z,72.22
2023-06-30T02:56:58.906Z,72.09
2023-06-30T02:59:00.308Z,71.83
2023-06-30T03:01:01.697Z,71.41
2023-06-30T03:03:05.771Z,71.38
2023-06-30T03:05:08.165Z,71.51
2023-06-30T03:07:09.613Z,71.30
2023-06-30T03:09:10.996Z,71.78
2023-06-30T03:11:12.449Z,71.58
2023-06-30T03:13:13.776Z,71.71
2023-06-30T03:15:15.105Z,71.65
2023-06-30T03:17:16.477Z,71.48
2023-06-30T03:19:17.870Z,71.58
2023-06-30T03:21:19.212Z,71.10
2023-06-30T03:23:20.981Z,71.22
2023-06-30T03:25:22.811Z,71.09
2023-06-30T03:27:24.253Z,71.06
2023-06-30T03:29:25.613Z,71.23
2023-06-30T03:31:27.108Z,71.29
2023-06-30T03:33:28.569Z,70.86
2023-06-30T03:35:29.945Z,70.76
2023-06-30T03:37:32.091Z,70.91
2023-06-30T03:39:33.792Z,70.90
2023-06-30T03:41:35.166Z,70.79
2023-06-30T03:43:36.495Z,70.63
2023-06-30T03:45:39.474Z,70.61
2023-06-30T03:47:40.990Z,70.79
2023-06-30T03:49:42.371Z,70.47
2023-06-30T03:51:43.754Z,70.46
2023-06-30T03:53:45.107Z,70.81
2023-06-30T03:55:46.834Z,70.54
2023-06-30T03:57:48.428Z,70.91
2023-06-30T03:59:49.759Z,70.72
2023-06-30T04:01:51.133Z,70.51
2023-06-30T04:03:52.955Z,70.67
2023-06-30T04:05:54.467Z,70.41
2023-06-30T04:07:56.014Z,70.31
2023-06-30T04:09:57.536Z,70.31
2023-06-30T04:11:58.883Z,70.44
2023-06-30T04:14:03.166Z,70.34
2023-06-30T04:16:04.600Z,70.43
2023-06-30T04:18:05.983Z,70.29
2023-06-30T04:20:11.054Z,70.08
2023-06-30T04:22:12.551Z,70.44
2023-06-30T04:24:13.973Z,70.51
2023-06-30T04:26:18.330Z,70.19
2023-06-30T04:28:19.676Z,70.15
2023-06-30T04:30:21.006Z,70.26
2023-06-30T04:32:22.415Z,70.30
2023-06-30T04:34:23.791Z,70.24
2023-06-30T04:36:25.119Z,70.54
2023-06-30T04:38:26.580Z,70.45
2023-06-30T04:40:34.109Z,70.29
2023-06-30T04:42:35.583Z,70.11
2023-06-30T04:44:38.170Z,69.93
2023-06-30T04:46:39.599Z,70.00
2023-06-30T04:48:41.155Z,69.90
2023-06-30T04:50:42.572Z,69.78
2023-06-30T04:52:43.892Z,70.28
2023-06-30T04:54:45.304Z,69.93
2023-06-30T04:56:46.682Z,69.74
2023-06-30T04:58:48.022Z,69.58
2023-06-30T05:00:50.688Z,69.97
2023-06-30T05:02:52.168Z,69.83
2023-06-30T05:04:53.520Z,70.05
2023-06-30T05:06:54.934Z,69.96
2023-06-30T05:08:56.329Z,70.04
2023-06-30T05:10:57.662Z,69.54
2023-06-30T05:12:58.998Z,69.64
2023-06-30T05:15:00.390Z,69.61
2023-06-30T05:17:01.831Z,69.65
2023-06-30T05:19:03.627Z,69.61
2023-06-30T05:21:05.584Z,69.20
2023-06-30T05:23:06.910Z,69.35
2023-06-30T05:25:08.424Z,69.27
2023-06-30T05:27:09.747Z,69.25
2023-06-30T05:29:11.876Z,69.41
2023-06-30T05:31:13.345Z,69.28
2023-06-30T05:33:14.686Z,69.80
2023-06-30T05:35:16.095Z,69.34
2023-06-30T05:37:17.459Z,69.57
2023-06-30T05:39:18.829Z,69.33
2023-06-30T05:41:20.168Z,69.40
2023-06-30T05:43:21.542Z,69.48
2023-06-30T05:45:22.864Z,69.80
2023-06-30T05:47:24.209Z,69.13
2023-06-30T05:49:25.588Z,69.60
2023-06-30T05:51:26.920Z,69.28
2023-06-30T05:53:28.341Z,69.38
2023-06-30T05:55:29.682Z,69.27
2023-06-30T05:57:31.078Z,69.39
2023-06-30T05:59:32.408Z,69.53
2023-06-30T06:01:33.729Z,69.07
2023-06-30T06:03:35.239Z,69.57
2023-06-30T06:05:36.933Z,69.27
2023-06-30T06:07:38.583Z,69.06
2023-06-30T06:09:39.994Z,69.19
2023-06-30T06:11:41.423Z,68.90
2023-06-30T06:13:43.070Z,68.96
2023-06-30T06:15:44.657Z,69.18
2023-06-30T06:17:46.244Z,68.86
2023-06-30T06:19:47.625Z,69.17
2023-06-30T06:21:48.971Z,69.29
2023-06-30T06:23:50.300Z,69.29
2023-06-30T06:25:51.717Z,69.25
2023-06-30T06:27:53.037Z,69.07
2023-06-30T06:29:54.360Z,69.35
2023-06-30T06:31:55.705Z,69.27
2023-06-30T06:33:57.034Z,69.28
2023-06-30T06:35:58.365Z,69.25
2023-06-30T06:37:59.698Z,69.02
2023-06-30T06:40:01.037Z,69.10
2023-06-30T06:42:02.387Z,69.04
2023-06-30T06:44:03.712Z,69.46
2023-06-30T06:46:05.126Z,69.33
2023-06-30T06:48:06.504Z,69.34
2023-06-30T06:50:08.335Z,69.01
2023-06-30T06:52:09.672Z,68.95
2023-06-30T06:54:11.034Z,69.14
2023-06-30T06:56:12.365Z,69.43
2023-06-30T06:58:13.750Z,69.20
2023-06-30T07:00:15.121Z,68.79
2023-06-30T07:02:16.446Z,68.79
2023-06-30T07:04:17.804Z,68.82
2023-06-30T07:06:19.795Z,69.17
2023-06-30T07:08:21.275Z,69.16
2023-06-30T07:10:25.508Z,68.79
2023-06-30T07:12:26.888Z,69.12
2023-06-30T07:14:28.212Z,69.28
2023-06-30T07:16:29.576Z,69.15
2023-06-30T07:18:31.184Z,69.16
2023-06-30T07:20:33.150Z,69.23
2023-06-30T07:22:34.876Z,69.00
2023-06-30T07:24:43.450Z,69.16
2023-06-30T07:26:45.356Z,69.09
2023-06-30T07:28:48.313Z,68.75
2023-06-30T07:30:49.842Z,69.01
2023-06-30T07:32:51.252Z,69.20
2023-06-30T07:34:52.655Z,69.18
2023-06-30T07:36:54.013Z,69.07
2023-06-30T07:38:55.375Z,69.03
2023-06-30T07:40:57.720Z,69.08
2023-06-30T07:43:00.374Z,69.03
2023-06-30T07:45:01.790Z,68.94
2023-06-30T07:47:03.247Z,69.21
2023-06-30T07:49:04.604Z,69.14
2023-06-30T07:51:09.782Z,68.96
2023-06-30T07:53:11.721Z,68.81
2023-06-30T07:55:14.000Z,68.82
2023-06-30T07:57:15.452Z,69.08
2023-06-30T07:59:16.768Z,68.61
2023-06-30T08:01:18.097Z,68.59
2023-06-30T08:03:21.248Z,69.04
2023-06-30T08:05:23.294Z,69.05
2023-06-30T08:07:47.989Z,68.83
2023-06-30T08:09:46.028Z,69.00
2023-06-30T08:11:47.349Z,68.83
2023-06-30T08:13:48.762Z,68.61
2023-06-30T08:15:50.422Z,68.93
2023-06-30T08:17:57.226Z,69.04
2023-06-30T08:20:00.124Z,69.11
2023-06-30T08:22:02.957Z,68.76
2023-06-30T08:24:04.493Z,68.64
2023-06-30T08:26:05.942Z,68.68
2023-06-30T08:28:07.312Z,69.07
2023-06-30T08:30:08.699Z,68.87
2023-06-30T08:32:10.117Z,68.94
2023-06-30T08:34:11.674Z,69.02
2023-06-30T08:36:12.992Z,68.90
2023-06-30T08:38:14.319Z,68.61
2023-06-30T08:40:15.645Z,68.64
2023-06-30T08:42:17.007Z,68.57
2023-06-30T08:44:18.789Z,68.92
2023-06-30T08:46:20.286Z,69.25
2023-06-30T08:48:21.700Z,69.03
2023-06-30T08:50:23.639Z,69.06
2023-06-30T08:52:25.019Z,68.65
2023-06-30T08:54:26.455Z,68.64
2023-06-30T08:56:27.786Z,68.92
2023-06-30T08:58:29.310Z,69.05
2023-06-30T09:00:30.696Z,68.86
2023-06-30T09:02:32.192Z,68.90
2023-06-30T09:04:33.674Z,69.07
2023-06-30T09:06:35.027Z,69.12
2023-06-30T09:08:36.354Z,68.83
2023-06-30T09:10:38.501Z,69.00
2023-06-30T09:12:40.505Z,69.19
2023-06-30T09:14:41.856Z,69.17
2023-06-30T09:16:43.220Z,68.59
2023-06-30T09:18:44.686Z,68.66
2023-06-30T09:20:46.012Z,68.64
2023-06-30T09:22:53.507Z,68.95
2023-06-30T09:24:56.914Z,69.01
2023-06-30T09:26:58.265Z,68.67
2023-06-30T09:28:59.612Z,69.10
2023-06-30T09:31:03.129Z,68.95
2023-06-30T09:33:04.575Z,69.03
2023-06-30T09:35:06.027Z,68.59
2023-06-30T09:37:07.438Z,68.99
2023-06-30T09:39:09.868Z,69.12
2023-06-30T09:41:11.192Z,68.62
2023-06-30T09:43:12.608Z,69.06
2023-06-30T09:45:13.971Z,69.03
2023-06-30T09:47:15.365Z,68.96
2023-06-30T09:49:16.716Z,68.95
2023-06-30T09:51:20.627Z,68.86
2023-06-30T09:53:22.005Z,68.95
2023-06-30T09:55:23.398Z,69.08
2023-06-30T09:57:24.777Z,68.75
2023-06-30T09:59:26.295Z,68.85
2023-06-30T10:01:27.688Z,68.59
2023-06-30T10:03:29.309Z,68.97
2023-06-30T10:05:31.113Z,69.07
2023-06-30T10:07:32.844Z,69.00
2023-06-30T10:09:34.367Z,68.72
2023-06-30T10:11:35.770Z,68.63
2023-06-30T10:13:37.152Z,69.03
2023-06-30T10:15:38.510Z,68.58
2023-06-30T10:17:40.088Z,68.82
2023-06-30T10:19:41.523Z,68.83
2023-06-30T10:21:42.990Z,68.86
2023-06-30T10:23:44.336Z,68.64
2023-06-30T10:25:45.888Z,68.78
2023-06-30T10:27:47.497Z,68.86
2023-06-30T10:29:48.899Z,68.73
2023-06-30T10:31:50.309Z,68.91
2023-06-30T10:33:53.272Z,68.95
2023-06-30T10:35:56.022Z,68.73
2023-06-30T10:37:57.450Z,68.92
2023-06-30T10:39:59.988Z,68.84
2023-06-30T10:42:02.179Z,68.73
2023-06-30T10:44:03.532Z,68.58
2023-06-30T10:46:05.308Z,68.82
2023-06-30T10:48:06.710Z,68.64
2023-06-30T10:50:08.048Z,68.78
2023-06-30T10:52:10.227Z,69.01
2023-06-30T10:54:11.607Z,68.76
2023-06-30T10:56:13.015Z,68.99
2023-06-30T10:58:14.333Z,68.37
2023-06-30T11:00:15.875Z,68.98
2023-06-30T11:02:17.272Z,68.88
2023-06-30T11:04:18.705Z,68.87
2023-06-30T11:06:20.884Z,68.45
2023-06-30T11:08:22.214Z,68.68
2023-06-30T11:10:23.774Z,68.79
2023-06-30T11:12:25.112Z,68.93
2023-06-30T11:14:26.484Z,68.85
2023-06-30T11:16:27.838Z,68.84
2023-06-30T11:18:29.263Z,68.65
2023-06-30T11:20:31.938Z,68.69
2023-06-30T11:22:33.303Z,68.81
2023-06-30T11:24:34.633Z,68.69
2023-06-30T11:26:35.969Z,68.83
2023-06-30T11:28:37.387Z,68.58
2023-06-30T11:30:39.994Z,68.90
2023-06-30T11:32:44.341Z,68.29
2023-06-30T11:34:45.703Z,68.44
2023-06-30T11:36:47.219Z,68.62
2023-06-30T11:38:48.549Z,68.49
2023-06-30T11:40:51.239Z,68.57
2023-06-30T11:42:55.442Z,68.37
2023-06-30T11:44:56.865Z,68.21
2023-06-30T11:46:59.397Z,68.66
2023-06-30T11:49:00.760Z,68.54
2023-06-30T11:51:02.221Z,68.17
2023-06-30T11:53:03.553Z,68.39
2023-06-30T11:55:04.911Z,68.14
2023-06-30T11:57:06.248Z,68.43
2023-06-30T11:59:08.395Z,68.01
2023-06-30T12:01:09.726Z,68.23
2023-06-30T12:03:11.139Z,68.02
2023-06-30T12:05:12.645Z,68.32
2023-06-30T12:07:14.071Z,67.92
2023-06-30T12:09:15.472Z,67.71
2023-06-30T12:11:16.990Z,68.21
2023-06-30T12:13:18.564Z,67.91
2023-06-30T12:15:20.064Z,67.79
2023-06-30T12:17:21.401Z,68.06
2023-06-30T12:19:22.730Z,67.59
2023-06-30T12:21:24.064Z,68.07
2023-06-30T12:23:26.049Z,68.04
2023-06-30T12:25:28.235Z,68.21
2023-06-30T12:27:29.670Z,68.10
2023-06-30T12:29:33.020Z,68.18
2023-06-30T12:31:34.703Z,68.08
2023-06-30T12:33:36.072Z,68.20
2023-06-30T12:35:37.457Z,67.97
2023-06-30T12:37:39.788Z,68.35
2023-06-30T12:39:41.109Z,68.14
2023-06-30T12:41:42.446Z,67.91
2023-06-30T12:43:43.923Z,67.70
2023-06-30T12:45:45.260Z,67.77
2023-06-30T12:47:46.695Z,67.90
2023-06-30T12:49:48.644Z,67.28
2023-06-30T12:51:49.999Z,67.21
2023-06-30T12:53:51.362Z,67.43
2023-06-30T12:55:52.851Z,67.39
2023-06-30T12:57:54.199Z,67.36
2023-06-30T12:59:55.532Z,67.43
2023-06-30T13:01:57.046Z,67.59
2023-06-30T13:03:58.659Z,67.30
2023-06-30T13:06:00.210Z,67.59
2023-06-30T13:08:01.816Z,67.29
2023-06-30T13:10:03.353Z,67.54
2023-06-30T13:12:04.735Z,67.70
2023-06-30T13:14:06.141Z,67.45
2023-06-30T13:16:07.486Z,67.34
2023-06-30T13:18:08.893Z,67.31
2023-06-30T13:20:10.521Z,67.27
2023-06-30T13:22:13.291Z,67.36
2023-06-30T13:24:14.670Z,67.34
2023-06-30T13:26:16.036Z,67.39
2023-06-30T13:28:17.367Z,67.68
2023-06-30T13:30:18.729Z,67.43
2023-06-30T13:32:20.158Z,67.69
2023-06-30T13:34:21.573Z,67.49
2023-06-30T13:36:22.948Z,67.49
2023-06-30T13:38:24.277Z,67.85
2023-06-30T13:40:25.694Z,67.90
2023-06-30T13:42:27.098Z,67.89
2023-06-30T13:44:31.258Z,68.16
2023-06-30T13:46:32.691Z,67.72
2023-06-30T13:48:34.131Z,67.89
2023-06-30T13:50:35.517Z,67.82
2023-06-30T13:52:36.873Z,67.74
2023-06-30T13:54:39.307Z,68.10
2023-06-30T13:56:40.702Z,67.80
2023-06-30T13:58:42.021Z,67.91
2023-06-30T14:00:47.775Z,67.84
2023-06-30T14:02:49.410Z,68.36
2023-06-30T14:04:50.922Z,68.09
2023-06-30T14:06:55.238Z,68.37
2023-06-30T14:08:57.329Z,68.65
2023-06-30T14:11:00.018Z,68.38
2023-06-30T14:13:01.537Z,67.65
2023-06-30T14:15:02.904Z,67.42
2023-06-30T14:17:04.894Z,67.16
2023-06-30T14:19:07.377Z,66.06
2023-06-30T14:21:08.703Z,65.54
2023-06-30T14:23:10.034Z,65.73
2023-06-30T14:25:11.478Z,66.56
2023-06-30T14:27:12.910Z,66.09
2023-06-30T14:29:17.026Z,66.46
2023-06-30T15:22:41.785Z,68.12
2023-06-30T15:24:43.161Z,67.87
2023-06-30T15:26:44.677Z,67.71
2023-06-30T15:28:46.065Z,67.93
2023-06-30T15:30:47.679Z,67.51
2023-06-30T15:32:49.627Z,67.54
2023-06-30T15:34:51.053Z,67.98
2023-06-30T15:36:52.393Z,67.75
2023-06-30T15:38:59.885Z,68.10
2023-06-30T15:41:21.348Z,67.89
2023-06-30T15:43:23.939Z,68.00
2023-06-30T15:45:28.126Z,67.81
2023-06-30T15:47:29.573Z,68.36
2023-06-30T15:49:31.048Z,68.49
2023-06-30T15:51:32.432Z,67.42
2023-06-30T15:53:33.769Z,64.97
2023-06-30T15:55:38.220Z,64.87
2023-06-30T15:57:39.634Z,64.40
2023-06-30T15:59:41.756Z,65.28
2023-06-30T16:01:43.078Z,64.93
2023-06-30T16:03:44.592Z,65.12
2023-06-30T16:05:46.369Z,65.53
2023-06-30T16:07:48.059Z,65.36
2023-06-30T16:09:49.426Z,65.35
2023-06-30T16:11:50.776Z,65.23
2023-06-30T16:13:52.132Z,65.67
2023-06-30T16:15:53.619Z,65.83
2023-06-30T16:17:54.985Z,65.96
2023-06-30T16:19:56.426Z,66.12
2023-06-30T16:21:57.777Z,66.25
2023-06-30T16:23:59.140Z,66.17
2023-06-30T16:26:00.702Z,65.43
2023-06-30T16:28:02.126Z,65.68
2023-06-30T16:30:03.496Z,65.33
2023-06-30T16:32:04.934Z,65.03
2023-06-30T16:34:06.324Z,64.93
2023-06-30T16:36:09.082Z,65.42
2023-06-30T16:38:10.514Z,65.99
2023-06-30T16:40:12.112Z,66.87
2023-06-30T16:42:13.453Z,66.44
2023-06-30T16:44:14.837Z,65.20
2023-06-30T16:46:16.235Z,65.05
2023-06-30T16:48:17.611Z,65.32
2023-06-30T16:50:19.037Z,65.61
2023-06-30T16:52:20.435Z,65.42
2023-06-30T16:54:21.782Z,66.46
2023-06-30T16:56:23.220Z,66.63
2023-06-30T16:58:26.318Z,67.75
2023-06-30T17:00:27.707Z,67.85
2023-06-30T17:02:29.262Z,68.45
2023-06-30T17:04:31.227Z,68.36
2023-06-30T17:06:32.695Z,68.32
2023-06-30T17:08:34.057Z,68.27
2023-06-30T17:10:35.480Z,68.36
2023-06-30T17:12:39.355Z,68.20
2023-06-30T17:14:40.710Z,68.28
2023-06-30T17:16:42.070Z,68.26
2023-06-30T17:18:43.512Z,68.13
2023-06-30T17:20:44.862Z,68.29
2023-06-30T17:22:46.277Z,68.51
2023-06-30T17:24:47.614Z,68.44
2023-06-30T17:26:49.005Z,68.80
2023-06-30T17:28:50.469Z,68.65
2023-06-30T17:30:51.837Z,68.58
2023-06-30T17:32:53.306Z,67.86
2023-06-30T17:34:54.823Z,68.28
2023-06-30T17:36:56.637Z,68.83
2023-06-30T17:38:59.866Z,68.20
2023-06-30T17:41:01.216Z,67.78
2023-06-30T17:43:02.629Z,67.30
2023-06-30T17:45:07.021Z,67.65
2023-06-30T17:47:08.402Z,68.27
2023-06-30T17:49:09.740Z,68.03
2023-06-30T17:51:11.136Z,67.79
2023-06-30T17:53:12.514Z,68.11
2023-06-30T17:55:14.002Z,68.03
2023-06-30T17:57:15.423Z,66.72
2023-06-30T17:59:16.796Z,66.75
2023-06-30T18:01:18.280Z,66.26
2023-06-30T18:03:19.753Z,64.73
2023-06-30T18:05:21.156Z,65.12
2023-06-30T18:07:22.735Z,64.87
2023-06-30T18:09:24.275Z,65.22
2023-06-30T18:11:25.650Z,64.74
2023-06-30T18:13:27.060Z,65.01
2023-06-30T18:15:28.442Z,64.74
2023-06-30T18:17:29.850Z,65.30
2023-06-30T18:19:32.085Z,65.39
2023-06-30T18:21:36.611Z,64.94
2023-06-30T18:23:37.945Z,65.31
2023-06-30T18:25:39.292Z,65.51
2023-06-30T18:27:40.716Z,65.83
2023-06-30T18:29:43.074Z,65.74
2023-06-30T18:31:44.510Z,65.67
2023-06-30T18:33:45.872Z,65.67
2023-06-30T18:35:47.780Z,66.10
2023-06-30T18:37:52.336Z,66.90
2023-06-30T18:39:53.681Z,67.50
2023-06-30T18:41:56.929Z,66.46
2023-06-30T18:43:58.269Z,65.53
2023-06-30T18:45:59.637Z,65.50
2023-06-30T18:48:01.018Z,65.60
2023-06-30T18:50:02.479Z,65.02
2023-06-30T18:52:03.852Z,65.45
2023-06-30T18:54:05.301Z,65.70
2023-06-30T18:56:06.719Z,65.74
2023-06-30T18:58:08.089Z,65.74
2023-06-30T19:00:09.555Z,65.81
2023-06-30T19:02:10.908Z,66.14
2023-06-30T19:04:15.427Z,65.44
2023-06-30T19:06:16.953Z,65.40
2023-06-30T19:08:18.338Z,65.57
2023-06-30T19:10:19.748Z,65.63
2023-06-30T19:12:23.880Z,65.67
2023-06-30T19:14:28.169Z,65.79
2023-06-30T19:16:32.625Z,65.78
2023-06-30T19:18:35.751Z,65.85
2023-06-30T19:20:37.913Z,65.92
2023-06-30T19:22:39.466Z,66.04
2023-06-30T19:24:43.547Z,65.80
2023-06-30T19:26:44.963Z,65.75
2023-06-30T19:28:46.367Z,65.82
2023-06-30T19:30:47.889Z,65.96
2023-06-30T19:32:49.249Z,66.55
2023-06-30T19:34:50.627Z,66.65
2023-06-30T19:36:59.333Z,66.82
2023-06-30T19:39:00.732Z,66.25
2023-06-30T19:41:02.170Z,65.67
2023-06-30T19:43:03.553Z,65.84
2023-06-30T19:45:06.109Z,65.98
2023-06-30T19:47:07.588Z,66.05
2023-06-30T19:49:08.959Z,65.72
2023-06-30T19:51:10.381Z,65.76
2023-06-30T19:53:17.515Z,66.03
2023-06-30T19:55:19.990Z,65.72
2023-06-30T19:57:21.371Z,65.81
2023-06-30T19:59:22.836Z,65.98
2023-06-30T20:01:26.837Z,65.96
2023-06-30T20:03:28.344Z,65.32
2023-06-30T20:05:30.028Z,66.29
2023-06-30T20:07:32.032Z,66.12
2023-06-30T20:09:34.044Z,65.87
2023-06-30T20:11:35.483Z,66.18
2023-06-30T20:13:40.038Z,65.78
2023-06-30T20:15:44.059Z,66.34
2023-06-30T20:17:45.565Z,65.81
2023-06-30T20:19:52.823Z,66.37
2023-06-30T20:21:54.166Z,67.69
2023-06-30T20:23:55.544Z,66.81
2023-06-30T20:25:56.950Z,66.29
2023-06-30T20:27:58.420Z,66.02
2023-06-30T20:29:59.775Z,65.41
2023-06-30T20:32:01.167Z,65.80
2023-06-30T20:34:03.187Z,65.75
2023-06-30T20:36:04.532Z,65.60
2023-06-30T20:38:05.868Z,65.80
2023-06-30T20:40:08.539Z,65.91
2023-06-30T20:42:10.132Z,65.56
2023-06-30T20:44:14.185Z,65.61
2023-06-30T20:46:15.666Z,66.00
2023-06-30T20:48:17.075Z,66.08
2023-06-30T20:50:18.460Z,65.63
2023-06-30T20:52:19.837Z,66.07
2023-06-30T20:54:21.224Z,65.99
2023-06-30T20:56:22.655Z,65.91
2023-06-30T20:58:23.990Z,65.75
2023-06-30T21:00:25.324Z,65.81
2023-06-30T21:02:26.746Z,65.54
2023-06-30T21:04:28.172Z,66.31
2023-06-30T21:06:29.650Z,66.10
2023-06-30T21:08:31.045Z,65.51
2023-06-30T21:10:32.386Z,65.56
2023-06-30T21:12:36.943Z,65.64
2023-06-30T21:14:38.699Z,65.45
2023-06-30T21:16:42.290Z,65.96
2023-06-30T21:18:43.656Z,65.81
2023-06-30T21:20:45.273Z,65.65
2023-06-30T21:22:46.881Z,66.02
2023-06-30T21:24:48.251Z,65.93
2023-06-30T21:26:49.694Z,65.70
2023-06-30T21:28:51.110Z,66.27
2023-06-30T21:30:53.291Z,65.74
2023-06-30T21:32:57.800Z,66.00
2023-06-30T21:34:59.477Z,66.18
2023-06-30T21:37:00.918Z,66.12
2023-06-30T21:39:02.317Z,66.18
2023-06-30T21:41:03.661Z,66.33
2023-06-30T21:43:05.034Z,66.49
2023-06-30T21:45:06.408Z,67.36
2023-06-30T21:47:07.768Z,67.09
2023-06-30T21:49:09.143Z,66.15
2023-06-30T21:51:10.591Z,66.59
2023-06-30T21:53:11.969Z,66.47
2023-06-30T21:55:13.575Z,66.02
2023-06-30T21:57:14.974Z,65.85
2023-06-30T21:59:16.325Z,66.13
2023-06-30T22:01:20.282Z,66.15
2023-06-30T22:03:24.327Z,66.38
2023-06-30T22:05:27.431Z,67.60
2023-06-30T22:07:31.205Z,68.22
2023-06-30T22:09:32.644Z,66.89
2023-06-30T22:11:34.001Z,66.70
2023-06-30T22:13:36.384Z,66.44
2023-06-30T22:15:37.809Z,66.04
2023-06-30T22:17:39.301Z,66.45
2023-06-30T22:19:40.689Z,66.10
2023-06-30T22:21:42.129Z,65.77
2023-06-30T22:23:43.489Z,66.04
2023-06-30T22:25:44.848Z,66.11
2023-06-30T22:27:46.392Z,65.76
2023-06-30T22:29:47.743Z,65.55
2023-06-30T22:31:49.371Z,65.36
2023-06-30T22:33:50.748Z,65.36
2023-06-30T22:35:52.096Z,65.35
2023-06-30T22:37:53.672Z,65.51
2023-06-30T22:39:55.292Z,65.69
2023-06-30T22:41:56.672Z,65.99
2023-06-30T22:43:58.164Z,65.64
2023-06-30T22:46:01.887Z,65.54
2023-06-30T22:48:03.349Z,65.69
2023-06-30T22:50:04.812Z,66.14
2023-06-30T22:52:06.262Z,66.13
2023-06-30T22:54:07.593Z,65.82
2023-06-30T22:56:10.095Z,65.90
2023-06-30T22:58:11.444Z,66.60
2023-06-30T23:00:12.769Z,67.45
2023-06-30T23:02:14.156Z,68.15
2023-06-30T23:04:15.664Z,68.50
2023-06-30T23:06:17.083Z,68.66
2023-06-30T23:08:18.485Z,68.89
2023-06-30T23:10:19.815Z,69.16
2023-06-30T23:12:21.173Z,69.19
2023-06-30T23:14:24.329Z,69.14
2023-06-30T23:16:25.742Z,69.15
2023-06-30T23:18:27.225Z,69.42
2023-06-30T23:20:28.656Z,69.65
2023-06-30T23:22:30.776Z,69.63
2023-06-30T23:24:33.904Z,69.62
2023-06-30T23:26:35.335Z,69.74
2023-06-30T23:28:36.733Z,69.60
2023-06-30T23:30:38.132Z,70.03
2023-06-30T23:32:47.262Z,69.68
2023-06-30T23:34:49.016Z,70.07
2023-06-30T23:36:50.465Z,69.93
2023-06-30T23:38:51.801Z,69.93
2023-06-30T23:40:53.128Z,70.07
2023-06-30T23:42:54.652Z,70.49
2023-06-30T23:44:55.989Z,70.24
2023-06-30T23:46:57.342Z,70.17
2023-06-30T23:48:58.811Z,70.25
2023-06-30T23:51:00.159Z,70.18
2023-06-30T23:53:01.516Z,70.47
2023-06-30T23:55:02.858Z,70.49
2023-06-30T23:57:04.214Z,70.97
2023-06-30T23:59:05.554Z,70.55
